Timeline UpdatesTrip UpdatesNews PostsPvt PostsTravel TipsAdmin PostsConv PostsFollowed PostsChat RequestsBlog PostsPNR Posts

Disclaimer
Search
 
 
Tue Sep 2, 2014 02:27:43 ISTHomeTrainsΣChainsAtlasPNRForumGalleryNewsFAQTripsMembersLoginFeedback
No Recent News for this Train
Other Trains in the News **new
Latest...
.
Mon Sep 01, 2014 (10:08PM)
⇐ Return Journey: Train# 15027

15028/Maurya Express

NO Time-Table Change.
Yesterday (10:08PM)
Change Departure Station:
Change Arrival Station:
Post a Train Travel TipPost a Train Travel Tip **new
Post a Comment/Question/Picture/VideoPost a Comment/Question/Picture/Video
Pantry/Catering
✕ NO Pantry Car
✓ Catering Avbl
RSA - Rake Sharing
Rake/Coach Composition
LOCO-SLR-GS-GS-GS-GS-GS-GS-A1-B1-S4-S3-S2-S1-GS-SLR
Loco
GD WDM-3A (GKP-BJU) HWH WAP-4 (BJU-HTE)
News    PNR    Forum    Time-Table    Availability    Fare Chart    Map    Arr/Dep History    Trips    Gallery    ΣChains    X/O    Timeline    
Travel Time: 7h 13m    8 halts    Distance: 208 km    Avg Speed: 28 km/hr
Type: Mail/Express
Zone: NER/North Eastern
Departs @ 00:57
Platform# ???
SMTWTFS
Kumardubi/KMME 
Arrives @ 08:10
Platform# 3
SMTWTFS
Hatia/HTE 

8 halts. 44 intermediate Stations between Kumardubi and Hatia

Hide intermediate Stations  

#CodeStation NameX/OArrivesAvgDepartsAvgHaltPFDay#KmSpeedElevZoneAddress
1GKPGorakhpur Junction (10)  -07:25-21-641.66484mNERGorakhpur 273001, Uttar Pradesh
1.1GKCGorakhpur Cantt. (3)X  07:29-07:29-  1-637.9 6485mNERGorakhpur-273001, Uttar Pradesh
1.2KHMKusmhi (2)X  07:37-07:37-  1-628.5 6483mNERGorakhpur, Uttar Pradesh
1.3SANRSardarnagar  07:43-07:43-  1-622.5 6482mNERGorakhpur-Deoria Road, Uttar Pradesh
2CCChauri Chaura (2)X  07:48-07:50-2m--1-617.25384mNERGorakhpur- PinCode:- 273201, Uttar Pradesh
3GBGauri Bazar (2)X  08:01-08:03-2m--1-607.56082mNERDistrict Deoria- Pincode- 274202, Uttar Pradesh
3.1BALRBaitalpur (2)  08:11-08:11-  1-599.1 6082mNERPin- 274201, Uttar Pradesh
4DEOSDeoria Sadar (3)  08:18-08:20-2m--1-592.55479mNERDeoria- 274001, Uttar Pradesh
4.1AHLRAhalyapurX  08:27-08:27-  1-586.3 5481mNERDeoria, Uttar Pradesh
4.2NRANunkhar (2)  08:35-08:35-  1-579.0 5475mNERBaikunthpur, Uttar Pradesh
5BTTBhatni Junction (5)  08:43-08:48-5m--1-571.77073mNERDeoria, Uttar Pradesh
5.1NNPRNonapar  08:52-08:52-  1-566.9 7076mNERSalempur Mairwa Rd, Uttar Pradesh
6BHTRBhatpar Rani (2)  08:59-09:01-2m--1-558.84873mNERDeoria, Uttar Pradesh
7BTKBankata (2)  09:11-09:13-2m--1-550.84373mNERDeoria, Uttar Pradesh
8MWMairwa (2)  09:22-09:24-2m--1-544.35173mNERMairwa, Bihar
8.1KYWKarchhueX  09:30-09:30-  1-538.8 5170mNERState Highway 47, Bihar
9ZRDEJiradei (2)X09:37-09:38-1m--1-533.37769mNERSiwan, Bihar
10SVSiwan Junction (4)  09:46-09:51-5m--1-523.07170mNERSiwan, Bihar
10.1PCKPachrukhi (2)  09:58-09:58-  1-514.7 7167mNERPachrukhi, Bihar
11DDADuraundha Junction (3)X  10:06-10:08-2m--1-505.26264mNERDistt: Siwan, Bihar
11.1CWChainwa (2)X  10:16-10:16-  1-497.0 6263mNERSiwan, Bihar
11.2MHRNMahendranath Halt (2)  10:18-10:18-  1-495.0 6263mNERMahendrana, Uttar Pradesh
12EKMAEkma (3)X  10:23-10:25-2m--1-489.72864mNERSaran, Bihar
12.1DDPDaudpur (2)  10:44-10:44-  1-481.1 2859mNERChhapra, Bihar
12.2KPSKopa Samhota (2)X  11:02-11:02-  1-472.4 2869mNERKopa Samhota Station Rd, Bihar
12.3TKVRTeknewas (2)  11:16-11:16-  1-466.1 2858mNERSaran, Bihar
13CPRChhapra Junction (6)X  11:25-11:35-10m--1-461.81658mNERDistt: Saran, Bihar
14CIChhapra Kacheri (3)  11:43-11:45-2m--1-459.77257mNERChhapra, Bihar
14.1GJHGoldinganj (2)  11:53-11:53-  1-450.6 7258mECRChapra Patna Highway, Bihar
14.2DRIDumri Juara (2)  11:57-11:57-  1-445.8 7257mECRSaran, Bihar
14.3BAGLBaragopal (2)  12:00-12:00-  1-441.7 7257mECRSH 46, Bihar
14.4PPDAPanchpatia Deoria Halt (1)  12:02-12:02-  1-438.9 7257mECRNH 19, Bihar
14.5ATNRAwatarnagar (2)  12:04-12:04-  1-436.8 7256mECRNH 19, Bihar
14.6AABHAmbika Bhawani Halt (1)X  12:06-12:06-  1-434.9 7259mECRNH 19, Bihar
15DGADighwara (2)  12:09-12:11-2m21-430.94360mECR06158-281240, Bihar
15.1STLRSitalpur (2)  12:17-12:17-  1-426.7 4357mECRSitalpur, Bihar
15.2NYONayagaon (2)  12:27-12:27-  1-419.1 4353mECRNayagaon Sarai, Bihar
15.3PMUParmanandpur (2)  12:34-12:34-  1-414.4 4356mECRNational Highway 19, Bihar
16SEESonpur Junction (4)X  12:43-12:53-10m--1-407.82556mECRSaran, Bihar
17HJPHajipur Junction (3)  13:06-13:08-2m21-402.33655mECR06224-272230, Bihar
17.1GWHGhoshawar (1)  13:16-13:16-  1-397.7 3654mECRDaulatpur Deoria urf Daulatpur, Bihar
17.2SAISarai (1)X  13:26-13:26-  1-391.7 3654mECRVaishali, Bihar
17.3BTHLBithauli (1)X  13:33-13:33-  1-387.3 3658mECRVaishali, Bihar
18BNRBhagwanpur (2)  13:41-13:43-2m11-382.66260mECRBhagwanpur, Bihar
18.1BNPTBenipatti Pirapur (1)  13:49-13:49-  1-376.3 6255mECRGhojaul Rd, Bihar
19GRLGoraul (2)  13:51-13:53-2m11-374.34457mECRVAISHALI, Bihar
19.1KHIKurhani (2)  14:01-14:01-  1-368.5 4456mECRKurhani, Bihar
19.2TURTurki (2)  14:09-14:09-  1-362.2 4455mECRTurki, Bihar
19.3RDRam Dayalu Nagar (3)XO  14:20-14:20-  1-354.5 4456mECRMuzaffarpur, Bihar
20MFPMuzaffarpur Junction (6)  14:28-14:38-10m11-348.46357mECRMuzaffarpur, Bihar
20.1NRPANarayanpur Anant (3)  14:43-14:43-  1-343.6 6356mECRMuzaffarpur, Bihar
20.2SLTSilaut (2)  14:48-14:48-  1-337.9 6357mECRMuzaffarpur, Bihar
20.3SIHOSiho (2)X  14:55-14:55-  1-330.1 6353mECRNational Highway 28, Bihar
21DOLDholi (2)X  15:02-15:04-2m--1-323.332 ECRDistt. Muzaffarpur, Bihar
21.1DUBHDubaha (2)  15:15-15:15-  1-317.3 3255mECRDubha Station, Bihar
21.2VBHVishnupur Bathua HaltO  15:22-15:22-  1-313.7 3255mECRTajpur - Garhia - Pusa Road, Bihar
22KRBPKhudiram B Pusa (2)X  15:29-15:31-2m--1-309.93452mECRDistt. Samastipur, Bihar
23KPGMKarpurigram (3)O  15:44-15:46-2m--1-302.61651mECRState Highway 49, Bihar
24SPJSamastipur Junction (9)X  16:10-16:20-10m--1-296.37055mECRSamastipur, Bihar
24.1BLRIBelari Halt  16:24-16:24-  1-291.7 7051mECRMalti, Bihar
24.2UJPUjiarpur (2)  16:28-16:28-  1-287.3 7051mECRSamastipur, Bihar
24.3NAZJNazirGanj (2)  16:33-16:33-  1-281.0 7051mECRNazirGanj, Bihar
24.4BSRABasarhia Halt (2)  16:36-16:36-  1-277.3 7052mECRBasaria, Bihar
25DSSDalsingh Sarai (2)  16:40-16:42-2m21-273.147 ECR06278-221238, Bihar
25.1STJTSathajagat (2)  16:48-16:48-  1-268.6 4749mECRSathajagat, Bihar
26BCABachwara Junction (3)XO  16:56-16:58-2m--1-262.11249mECRBegusarai, Bihar
26.1TGATeghra (3)O  17:43-17:43-  1-253.1 1248mECRBegusarai, Bihar
26.2BUJBarauni Flag (2)X  18:06-18:06-  1-248.5 1249mECRDistt: Begusarai, Bihar
27BJUBarauni Junction (9)X  18:20-18:45-25m61-245.83149mECRBegusarai, Bihar
27.1GHXGarhara (1)X  18:51-18:51-  1-242.7 3147mECRSimariya, Bihar
27.2SAEDinkar Gram Simaria (3)  18:57-18:57-  1-239.3 31228mECRBegusarai, Bihar
27.3BTPHChakia Thermal Halt (2)X  19:00-19:00-  1-238.0 3146mECRNational Highway 31, Bihar
27.4RJORajendra Pul (1)  19:03-19:03-  1-236.4 3149mECRSimaria, Bihar
28HTZHathidah Junction (2)X  19:09-19:11-2m21-233.21950mECRMusahari, Bihar
28.1RDUMRampur Dumra (3)XO  19:23-19:23-  1-229.4 1946mECRNational Highway 80, Bihar
29BRYABarhiya (3)  19:40-19:42-2m--1-223.87047mECRBarahiya, Bihar
29.1GGSYGanga Sahay  19:44-19:44-  1-221.2 7044mECRKIUL, Bihar
29.2DMRXDumri Halt (1)  19:46-19:46-  1-219.6 7049mECRNational Highway 80, Bihar
29.3DJSDhurani Jwas Halt  19:48-19:48-  1-216.3 7046mECRLakhisarai, Bihar
29.4MKBMankathaX  19:50-19:50-  1-214.3 7047mECRNational Highway 80, Bihar
30LKRLuckeesarai Junction (2)XO  19:55-19:57-2m21-208.7852mECRLakhisarai, Bihar
31KIULKiul Junction (5)  20:07-20:12-5m51-207.46353mECRDist. Lakhisarai, Bihar
31.1MHLTMahesh Leta Halt  20:14-20:14-  1-205.0 6352mECRKiul, Bihar
31.2LCKLakhochak Halt  20:15-20:15-  1-203.8 6352mECRKiul, Bihar
31.3BSQPBansipur  20:16-20:16-  1-203.0 6353mECRKiul, Bihar
31.4BLHRBalahapur Halt  20:17-20:17-  1-202.4 6353mECRSH 18, Bihar
31.5MNPMananpur (2)  20:19-20:19-  1-200.5 6357mECRState Highway 18, Bihar
31.6BFMBhalui  20:21-20:21-  1-197.9 6356mECRState Highway 18, Bihar
31.7KDERKunder Halt  20:28-20:28-  1-190.1 6366mECRSH 18, Bihar
32JMUJamui (3)  20:38-20:40-2m--1-180.11881mECRState Highway 72, Bihar
32.1CUXChauraXO  20:49-20:49-  1-177.5 1879mECRState Highway 18, Bihar
32.2GHRGidhaur (2)XO  21:29-21:29-  1-165.5 18106mECRState Highway 18, Bihar
32.3DPXDadpurX  21:44-21:44-  1-161.2 18116mECRDadpur, Bihar
33JAJJhajha (4)  22:08-22:18-10m--1-154.180143mECRJhajha, Bihar
33.1RJLARajla (2)  22:21-22:21-  1-149.9 80152mERTola Agaria Kalan, Bihar
33.2NRGONarganjo Halt (2)  22:24-22:24-  1-146.0 80188mERState Highway 18, Bihar
33.3GHNGhorparanX  22:27-22:27-  1-141.9 80230mERSwami Vivekanand College Rd, Bihar
33.4STLSimultala (2)  22:32-22:32-  1-135.4 80247mERSimultala, Bihar
33.5TLBTalwa Bazar (2)X  22:34-22:34-  1-132.8 80233mERTola Siantanr, Bihar
33.6LHBLahabon (3)  22:40-22:40-  1-125.2 80259mERDeoghar, Jharkhand
33.7TTNTulsitanr (2)  22:46-22:46-  1-117.0 80272mERDeoghar, Jharkhand
34JSMEJasidih Junction (5)  22:51-22:56-5m--1-110.070271mERJasidih, Jharkhand
34.1KBQKumrabad Rohini (2)  23:01-23:01-  1-103.6 70231mERKumrabad Rohi, Jharkhand
34.2SNQSankarpur (2)  23:06-23:06-  1-98.8 70242mERDeoghar, Jharkhand
34.3MUWMathurapur (2)X  23:11-23:11-  1-92.6 70261mERDeoghar, Jharkhand
34.4NPZNawapatra  23:16-23:16-  1-86.8 70221mERDeoghar, Jharkhand
35MDPMadhupur Junction (4)X  23:21-23:25-4m--1-80.981254mER06432-224478, Jharkhand
35.1JRWJoramowX  23:32-23:32-  1-71.0 81208mERBarrage on Ajoy River, Jharkhand
35.2MNCMadankata (2)X  23:36-23:36-  1-65.6 81208mERBarrage on Ajoy River, Jharkhand
36VDSVidyasagar (2)  23:43-23:45-2m--1-56.769250mERJamtara, Jharkhand
36.1KEEKaseetar  23:53-23:53-  1-47.0 69219mERJamtara, Jharkhand
36.2JMTJamtara (2)  00:01-00:01-  2-38.8 69201mERJamtara, Jharkhand
36.3BMBodma  00:08-00:08-  2-29.7 69179mERChittaranjan, West Bengal
37CRJChittaranjan (3)X  00:13-00:15-2m22-24.543182mERMihijam, Jharkhand
37.1RNPRRupnarayanpur (3)O  00:21-00:21-  2-20.0 43191mERChittaranjan, West Bengal
37.2SLSSalanpur (2)  00:31-00:31-  2-12.8 43156mERSalanpur Station, West Bengal
38ULTKulti (3)  00:41-00:43-2m--2-5.839148mERdist - bardhaman, West Bengal
39BRRBarakar (2)  00:48-00:50-2m--2-2.530129mERDist. Bardhaman, West Bengal
40KMME»Kumardubi (2)»  00:55-00:57-2m--20.024135mERDhanbad - 828203(06540-222077), Jharkhand
40.1MMUMugma (3)X  01:09-01:09-  24.6 24135mERNational Highway 2, Jharkhand
40.2TNWThapar Nagar (2)XO  01:22-01:22-  29.9 24144mERDhanbad, Jharkhand
40.3KAOKalubathan (2)X  01:33-01:33-  214.2 24195mERDhanbad, Jharkhand
40.4CAMChhota Ambana (3)X  01:56-01:56-  223.2 24200mERDhanbad, Jharkhand
40.5PKAPradhankhunta Junction (3)X  02:12-02:12-  229.4 24202mECRDhanbad, Jharkhand
40.6DOKMDokra Halt (2)  02:22-02:22-  233.2 24211mECRDokra, Jharkhand
41DHNDhanbad Junction (8)X  02:35-02:55-20m--238.525235mECR2319801. Div. HQ ECR, Jharkhand
41.1KDSKusunda Junction (2)  03:05-03:05-  242.5 25218mECRKusunda, Jharkhand
41.2BZEBaseria (2)  03:10-03:10-  244.7 25210mECRBaseria, Jharkhand
41.3BZSBansjora  03:15-03:15-  246.8 25212mECRDhanbad, Jharkhand
41.4SJASijuaX  03:21-03:21-  249.3 25206mECRSijua, Jharkhand
41.5ANJEAngarpathra HaltX  03:24-03:24-  250.5 25204mECRAngarpathra, Jharkhand
42KTHKatrasgarh (1)  03:28-03:33-5m1252.322198mECRKatrasgarh, Jharkhand
42.1TNJETentulla  03:40-03:40-  254.8 22196mECRTentulla, Jharkhand
42.2SZESonardih  03:44-03:44-  256.2 22197mECRSonardih, Jharkhand
42.3TNOTundu  03:48-03:48-  257.8 22198mECRTundu, Jharkhand
42.4BDQBudora  03:54-03:54-  259.7 22210mECRBudora, Jharkhand
42.5PLJEPhulwartanr (2)  03:56-03:56-  260.6 22219mECRPhulwartanr, Jharkhand
42.6JMXJamuni  04:03-04:03-  263.1 22204mECRJamuni, Jharkhand
42.7JNNAJamuniatanr Halt (1)  04:10-04:10-  265.6 22182mECRNational Highway 32, Jharkhand
42.8DDGADugda (1)  04:18-04:18-  268.3 22209mECRDugda, Jharkhand
42.9DNHDeonagar  04:22-04:22-  269.9 22223mECRDeonagar, Jharkhand
43CRPChandrapura Junction (2)  04:30-04:33-3m1272.735227mECR06549-242555, Jharkhand
43.1RJBRajabera  04:40-04:40-  276.9 35198mECRStation Rd, Jharkhand
43.2TKBTupkadih (3)  04:48-04:48-  281.7 35233mSERBokaro, Jharkhand
43.3BKSNBokaro North Cabin  04:55-04:55-  285.6 35239mSERBokaro Steel City, Jharkhand
44BKSCBokaro Steel City (3)  05:00-05:10-10m2288.361245mSER06542-253861, Jharkhand
44.1RDFRadhagaon (3)X  05:16-05:16-  294.8 61247mSERPundag Railway Station Rd, Jharkhand
44.2PNWPundhag (3)  05:26-05:26-  2105.0 61291mSERDist - Puruliya -723215, West Bengal
44.3DRGUDamru Ghutu (2)  05:33-05:33-  2111.2 61291mSERAnandnagar Rd, West Bengal
45KSXKotshila Junction (3)  05:38-05:40-2m12116.663312mSERPurulia District, West Bengal
45.1BKDRBegunkodar (2)  05:47-05:47-  2124.0 63314mSERSH 4A, West Bengal
46JAAJhalida (3)  05:51-05:53-2m--2128.235297mSERJhalida, West Bengal
46.1THOTulin (3)  06:06-06:06-  2135.7 35267mSERDIST - PURULIYA - 723212, West Bengal
47MURIMuri Junction (3)X  06:15-06:20-5m32141.042254mSER06522-222444, Jharkhand
47.1SLFSilli (3)X  06:29-06:29-  2147.0 42269mSERRanchi, Jharkhand
47.2KITAKita (2)X  06:40-06:40-  2154.8 42323mSERState Highway 2, Jharkhand
47.3JONJonha (1)X  07:04-07:04-  2171.6 42470mSERJohna, Jharkhand
47.4KWKCKherwa Kocha (1)  07:06-07:06-  2173.0 42454mSERlepsar, Jharkhand
47.5GAGGangaghat (2)X  07:19-07:19-  2182.2 42543mSERState Highway 2, Jharkhand
47.6TISTatisilwai (3)  07:30-07:30-  2189.9 42612mSERTatisilwai, Jharkhand
47.7NKMNamkom (3)  07:39-07:39-  2196.4 42618mSERRanchi, Jharkhand
48RNCRanchi Junction (6)  07:45-07:55-10m22200.628632mSERDiv HQ SER, Jharkhand
48.1AORArgora (1)  08:00-08:00-  2202.9 28654mSERRanchi, Jharkhand
49HTE•Hatia (3)•  08:10--32207.7-657mSER2788599, Jharkhand
Scroll to Top
Scroll to Bottom